createdAt,value
2019-03-24T00:00:13.442Z,95.79
2019-03-24T00:01:13.411Z,97.31
2019-03-24T00:02:13.355Z,98.07
2019-03-24T00:03:13.318Z,99.02
2019-03-24T00:04:14.109Z,99.11
2019-03-24T00:05:13.246Z,98.54
2019-03-24T00:06:13.205Z,98.54
2019-03-24T00:07:13.195Z,97.97
2019-03-24T00:08:13.148Z,98.07
2019-03-24T00:09:13.106Z,97.69
2019-03-24T00:10:13.078Z,97.60
2019-03-24T00:11:13.029Z,98.16
2019-03-24T00:12:12.999Z,98.16
2019-03-24T00:13:12.943Z,98.64
2019-03-24T00:14:12.904Z,98.64
2019-03-24T00:15:12.864Z,99.11
2019-03-24T00:16:12.818Z,98.92
2019-03-24T00:17:12.793Z,99.30
2019-03-24T00:18:14.683Z,98.73
2019-03-24T00:19:12.717Z,99.21
2019-03-24T00:20:12.718Z,99.40
2019-03-24T00:21:12.651Z,99.49
2019-03-24T00:22:12.600Z,99.99
2019-03-24T00:23:12.581Z,99.99
2019-03-24T00:24:12.535Z,99.99
2019-03-24T00:25:12.484Z,99.99
2019-03-24T00:26:12.469Z,99.99
2019-03-24T00:27:12.412Z,99.99
2019-03-24T00:28:12.367Z,99.99
2019-03-24T00:29:12.349Z,99.99
2019-03-24T00:30:12.293Z,99.99
2019-03-24T00:31:12.251Z,99.99
2019-03-24T00:32:12.279Z,99.99
2019-03-24T00:33:12.189Z,99.99
2019-03-24T00:34:12.164Z,99.99
2019-03-24T00:35:12.105Z,99.99
2019-03-24T00:36:12.101Z,99.99
2019-03-24T00:37:12.028Z,99.99
2019-03-24T00:38:12.020Z,99.99
2019-03-24T00:39:11.956Z,99.99
2019-03-24T00:40:11.909Z,99.99
2019-03-24T00:41:11.876Z,99.99
2019-03-24T00:42:11.854Z,99.99
2019-03-24T00:43:11.851Z,99.99
2019-03-24T00:44:11.807Z,99.99
2019-03-24T00:45:11.724Z,99.99
2019-03-24T00:46:11.692Z,99.99
2019-03-24T00:47:11.651Z,99.99
2019-03-24T00:48:11.643Z,99.99
2019-03-24T00:49:11.602Z,99.99
2019-03-24T00:50:11.530Z,99.99
2019-03-24T00:51:11.511Z,99.99
2019-03-24T00:52:11.499Z,99.99
2019-03-24T00:53:11.522Z,99.99
2019-03-24T00:54:11.395Z,99.99
2019-03-24T00:55:11.351Z,99.99
2019-03-24T00:56:11.338Z,99.99
2019-03-24T00:57:11.298Z,99.99
2019-03-24T00:58:11.271Z,99.99
2019-03-24T00:59:11.207Z,99.99
2019-03-24T01:00:11.175Z,99.99
2019-03-24T01:01:11.100Z,99.99
2019-03-24T01:02:11.090Z,99.99
2019-03-24T01:03:11.047Z,99.99
2019-03-24T01:04:11.005Z,99.99
2019-03-24T01:05:10.988Z,99.99
2019-03-24T01:06:10.940Z,99.99
2019-03-24T01:07:10.899Z,99.99
2019-03-24T01:08:10.874Z,99.99
2019-03-24T01:09:10.809Z,99.99
2019-03-24T01:10:10.772Z,99.99
2019-03-24T01:11:10.749Z,99.99
2019-03-24T01:12:10.694Z,99.99
2019-03-24T01:13:10.670Z,99.99
2019-03-24T01:14:10.634Z,99.99
2019-03-24T01:15:10.595Z,99.99
2019-03-24T01:16:10.567Z,99.99
2019-03-24T01:17:10.517Z,99.99
2019-03-24T01:18:10.471Z,99.99
2019-03-24T01:19:10.430Z,99.99
2019-03-24T01:20:10.420Z,99.99
2019-03-24T01:21:10.385Z,99.99
2019-03-24T01:22:10.378Z,99.99
2019-03-24T01:23:10.299Z,99.99
2019-03-24T01:24:10.235Z,99.99
2019-03-24T01:25:10.219Z,99.99
2019-03-24T01:26:10.163Z,99.99
2019-03-24T01:27:10.126Z,99.99
2019-03-24T01:28:10.103Z,99.99
2019-03-24T01:29:10.069Z,99.99
2019-03-24T01:30:10.048Z,99.99
2019-03-24T01:31:09.968Z,99.99
2019-03-24T01:32:09.960Z,99.99
2019-03-24T01:33:09.926Z,99.99
2019-03-24T01:34:09.869Z,99.99
2019-03-24T01:35:09.831Z,99.99
2019-03-24T01:36:09.789Z,99.99
2019-03-24T01:37:09.759Z,99.99
2019-03-24T01:38:09.736Z,99.99
2019-03-24T01:39:09.697Z,99.99
2019-03-24T01:40:09.648Z,99.99
2019-03-24T01:41:09.756Z,99.99
2019-03-24T01:42:09.571Z,99.99
2019-03-24T01:43:09.576Z,99.99
2019-03-24T01:44:09.497Z,99.99
2019-03-24T01:45:09.484Z,99.99
2019-03-24T01:46:09.421Z,99.99
2019-03-24T01:47:09.382Z,99.99
2019-03-24T01:48:09.426Z,99.99
2019-03-24T01:49:09.311Z,99.99
2019-03-24T01:50:09.296Z,99.99
2019-03-24T01:51:09.230Z,99.99
2019-03-24T01:52:09.186Z,99.99
2019-03-24T01:53:09.175Z,99.99
2019-03-24T01:54:09.155Z,99.99
2019-03-24T01:55:09.111Z,99.99
2019-03-24T01:56:09.054Z,99.99
2019-03-24T01:57:09.013Z,99.99
2019-03-24T01:58:08.973Z,99.99
2019-03-24T01:59:08.971Z,99.99
2019-03-24T02:00:08.895Z,99.99
2019-03-24T02:01:08.870Z,99.99
2019-03-24T02:02:08.824Z,99.99
2019-03-24T02:03:08.786Z,99.99
2019-03-24T02:04:08.744Z,99.99
2019-03-24T02:05:08.706Z,99.99
2019-03-24T02:06:08.672Z,99.99
2019-03-24T02:07:08.636Z,99.99
2019-03-24T02:08:08.603Z,99.99
2019-03-24T02:09:08.579Z,99.99
2019-03-24T02:10:08.508Z,99.99
2019-03-24T02:11:08.491Z,99.99
2019-03-24T02:12:08.456Z,99.99
2019-03-24T02:13:08.411Z,99.99
2019-03-24T02:14:08.384Z,99.99
2019-03-24T02:15:08.329Z,99.99
2019-03-24T02:16:09.609Z,99.99
2019-03-24T02:17:08.308Z,99.99
2019-03-24T02:18:08.234Z,99.99
2019-03-24T02:19:08.181Z,99.99
2019-03-24T02:20:08.126Z,99.99
2019-03-24T02:21:08.112Z,99.99
2019-03-24T02:22:08.112Z,99.99
2019-03-24T02:23:08.022Z,99.99
2019-03-24T02:24:08.001Z,99.99
2019-03-24T02:25:08.042Z,99.99
2019-03-24T02:26:07.921Z,99.99
2019-03-24T02:27:07.893Z,99.99
2019-03-24T02:28:07.824Z,99.99
2019-03-24T02:29:07.898Z,99.99
2019-03-24T02:30:07.767Z,99.99
2019-03-24T02:31:07.729Z,99.99
2019-03-24T02:32:07.693Z,99.99
2019-03-24T02:33:07.659Z,99.99
2019-03-24T02:34:07.609Z,99.99
2019-03-24T02:35:07.575Z,99.99
2019-03-24T02:36:07.600Z,99.99
2019-03-24T02:37:07.505Z,99.99
2019-03-24T02:38:07.481Z,99.99
2019-03-24T02:39:07.426Z,99.99
2019-03-24T02:40:07.396Z,99.99
2019-03-24T02:41:07.358Z,99.99
2019-03-24T02:42:07.330Z,99.99
2019-03-24T02:43:07.327Z,99.99
2019-03-24T02:44:07.240Z,99.99
2019-03-24T02:45:07.227Z,99.99
2019-03-24T02:46:07.186Z,99.99
2019-03-24T02:47:07.132Z,99.99
2019-03-24T02:48:07.094Z,99.99
2019-03-24T02:49:07.151Z,99.99
2019-03-24T02:50:07.029Z,99.99
2019-03-24T02:51:06.998Z,99.99
2019-03-24T02:52:06.961Z,99.99
2019-03-24T02:53:06.917Z,99.99
2019-03-24T02:54:06.870Z,99.99
2019-03-24T02:55:06.852Z,99.99
2019-03-24T02:56:06.781Z,99.99
2019-03-24T02:57:06.777Z,99.99
2019-03-24T02:58:06.718Z,99.99
2019-03-24T02:59:06.709Z,99.99
2019-03-24T03:00:06.654Z,99.99
2019-03-24T03:01:06.602Z,99.99
2019-03-24T03:02:06.569Z,99.99
2019-03-24T03:03:06.525Z,99.99
2019-03-24T03:04:06.496Z,99.99
2019-03-24T03:05:06.459Z,99.99
2019-03-24T03:06:06.437Z,99.99
2019-03-24T03:07:06.376Z,99.99
2019-03-24T03:08:06.355Z,99.99
2019-03-24T03:09:06.312Z,99.99
2019-03-24T03:10:06.267Z,99.99
2019-03-24T03:11:06.222Z,99.99
2019-03-24T03:12:06.269Z,99.99
2019-03-24T03:13:06.215Z,99.99
2019-03-24T03:14:06.135Z,99.99
2019-03-24T03:15:06.106Z,99.99
2019-03-24T03:16:06.050Z,99.99
2019-03-24T03:17:06.053Z,99.99
2019-03-24T03:18:05.994Z,99.99
2019-03-24T03:19:05.938Z,99.99
2019-03-24T03:20:05.902Z,99.99
2019-03-24T03:21:05.856Z,99.99
2019-03-24T03:22:05.841Z,99.99
2019-03-24T03:23:05.780Z,99.99
2019-03-24T03:24:05.754Z,99.99
2019-03-24T03:25:05.713Z,99.99
2019-03-24T03:26:05.668Z,99.99
2019-03-24T03:27:05.643Z,99.99
2019-03-24T03:28:05.588Z,99.99
2019-03-24T03:29:05.558Z,99.99
2019-03-24T03:30:05.530Z,99.99
2019-03-24T03:31:05.478Z,99.99
2019-03-24T03:32:05.494Z,99.99
2019-03-24T03:33:05.406Z,99.99
2019-03-24T03:34:05.391Z,99.99
2019-03-24T03:35:05.322Z,99.99
2019-03-24T03:36:05.285Z,99.99
2019-03-24T03:37:05.274Z,99.99
2019-03-24T03:38:05.273Z,99.99
2019-03-24T03:39:05.205Z,99.99
2019-03-24T03:40:05.179Z,99.99
2019-03-24T03:41:05.174Z,99.99
2019-03-24T03:42:05.075Z,99.99
2019-03-24T03:43:05.030Z,99.99
2019-03-24T03:44:05.006Z,99.99
2019-03-24T03:45:04.971Z,99.99
2019-03-24T03:46:04.931Z,99.99
2019-03-24T03:47:04.903Z,99.99
2019-03-24T03:48:04.855Z,99.99
2019-03-24T03:49:04.831Z,99.99
2019-03-24T03:50:04.775Z,99.99
2019-03-24T03:51:04.747Z,99.99
2019-03-24T03:52:04.714Z,99.99
2019-03-24T03:53:04.678Z,99.99
2019-03-24T03:54:04.639Z,99.99
2019-03-24T03:55:04.593Z,99.99
2019-03-24T03:56:04.570Z,99.99
2019-03-24T03:57:04.508Z,99.99
2019-03-24T03:58:04.490Z,99.99
2019-03-24T03:59:04.443Z,99.99
2019-03-24T04:00:04.401Z,99.99
2019-03-24T04:01:04.371Z,99.99
2019-03-24T04:02:04.334Z,99.99
2019-03-24T04:03:04.321Z,99.99
2019-03-24T04:04:04.271Z,99.99
2019-03-24T04:05:04.202Z,99.99
2019-03-24T04:06:04.199Z,99.99
2019-03-24T04:07:04.156Z,99.99
2019-03-24T04:08:04.200Z,99.99
2019-03-24T04:09:04.062Z,99.99
2019-03-24T04:10:04.039Z,99.99
2019-03-24T04:11:04.108Z,99.99
2019-03-24T04:12:03.962Z,99.99
2019-03-24T04:13:03.948Z,99.99
2019-03-24T04:14:03.883Z,99.99
2019-03-24T04:15:03.827Z,99.99
2019-03-24T04:16:03.804Z,99.99
2019-03-24T04:17:07.772Z,99.99
2019-03-24T04:18:03.717Z,99.99
2019-03-24T04:19:03.699Z,99.99
2019-03-24T04:20:03.661Z,99.99
2019-03-24T04:21:03.645Z,99.99
2019-03-24T04:22:03.592Z,99.99
2019-03-24T04:23:03.560Z,99.99
2019-03-24T04:24:03.515Z,99.99
2019-03-24T04:25:03.472Z,99.99
2019-03-24T04:26:03.437Z,99.99
2019-03-24T04:27:03.414Z,99.99
2019-03-24T04:28:03.355Z,99.99
2019-03-24T04:29:03.322Z,99.99
2019-03-24T04:30:03.286Z,99.99
2019-03-24T04:31:03.257Z,99.99
2019-03-24T04:32:03.219Z,99.99
2019-03-24T04:33:03.178Z,99.99
2019-03-24T04:34:03.149Z,99.99
2019-03-24T04:35:03.097Z,99.99
2019-03-24T04:36:03.077Z,99.99
2019-03-24T04:37:03.046Z,99.99
2019-03-24T04:38:02.978Z,99.99
2019-03-24T04:39:02.965Z,99.99
2019-03-24T04:40:02.916Z,99.99
2019-03-24T04:41:02.918Z,99.99
2019-03-24T04:42:02.822Z,99.99
2019-03-24T04:43:02.814Z,99.99
2019-03-24T04:44:02.771Z,99.99
2019-03-24T04:45:02.724Z,99.99
2019-03-24T04:46:02.708Z,99.99
2019-03-24T04:47:02.649Z,99.99
2019-03-24T04:48:02.598Z,99.99
2019-03-24T04:49:02.582Z,99.99
2019-03-24T04:50:02.536Z,99.99
2019-03-24T04:51:02.491Z,99.99
2019-03-24T04:52:02.452Z,99.99
2019-03-24T04:53:02.432Z,99.99
2019-03-24T04:54:02.411Z,99.99
2019-03-24T04:55:02.341Z,99.99
2019-03-24T04:56:02.332Z,99.99
2019-03-24T04:57:02.282Z,99.99
2019-03-24T04:58:02.249Z,99.99
2019-03-24T04:59:02.194Z,99.99
2019-03-24T05:00:02.203Z,99.99
2019-03-24T05:01:02.138Z,99.99
2019-03-24T05:02:02.095Z,99.99
2019-03-24T05:03:02.092Z,99.99
2019-03-24T05:04:03.768Z,99.99
2019-03-24T05:05:01.992Z,99.99
2019-03-24T05:06:01.947Z,99.99
2019-03-24T05:07:01.912Z,99.99
2019-03-24T05:08:01.853Z,99.99
2019-03-24T05:09:01.804Z,99.99
2019-03-24T05:10:01.805Z,99.99
2019-03-24T05:11:01.762Z,99.99
2019-03-24T05:12:01.703Z,99.99
2019-03-24T05:13:01.666Z,99.99
2019-03-24T05:14:01.638Z,99.99
2019-03-24T05:15:01.594Z,99.99
2019-03-24T05:16:01.572Z,99.99
2019-03-24T05:17:01.525Z,99.99
2019-03-24T05:18:01.501Z,99.99
2019-03-24T05:19:01.450Z,99.99
2019-03-24T05:20:01.411Z,99.99
2019-03-24T05:21:01.359Z,99.99
2019-03-24T05:22:01.320Z,99.99
2019-03-24T05:23:01.302Z,99.99
2019-03-24T05:24:01.280Z,99.99
2019-03-24T05:25:01.236Z,99.99
2019-03-24T05:26:01.184Z,99.99
2019-03-24T05:27:01.151Z,99.99
2019-03-24T05:28:01.146Z,99.99
2019-03-24T05:29:01.099Z,99.99
2019-03-24T05:30:01.057Z,99.99
2019-03-24T05:31:01.007Z,99.99
2019-03-24T05:32:00.964Z,99.99
2019-03-24T05:33:01.003Z,99.99
2019-03-24T05:34:00.896Z,99.99
2019-03-24T05:35:00.871Z,99.99
2019-03-24T05:36:00.795Z,99.99
2019-03-24T05:37:00.790Z,99.99
2019-03-24T05:38:00.753Z,99.99
2019-03-24T05:39:00.704Z,99.99
2019-03-24T05:40:00.662Z,99.99
2019-03-24T05:41:00.646Z,99.99
2019-03-24T05:42:00.577Z,99.99
2019-03-24T05:43:00.533Z,99.99
2019-03-24T05:44:00.512Z,99.99
2019-03-24T05:45:00.510Z,99.99
2019-03-24T05:46:00.437Z,99.99
2019-03-24T05:47:00.409Z,99.99
2019-03-24T05:48:00.349Z,99.99
2019-03-24T05:49:00.391Z,99.99
2019-03-24T05:50:00.340Z,99.99
2019-03-24T05:51:00.243Z,99.99
2019-03-24T05:52:00.219Z,99.99
2019-03-24T05:53:00.166Z,99.99
2019-03-24T05:54:00.144Z,99.99
2019-03-24T05:55:00.141Z,99.99
2019-03-24T05:56:00.075Z,99.99
2019-03-24T05:57:00.039Z,99.99
2019-03-24T05:58:00.022Z,99.99
2019-03-24T05:58:59.949Z,99.99
2019-03-24T05:59:59.908Z,99.99
2019-03-24T06:00:59.916Z,99.99
2019-03-24T06:01:59.834Z,99.99
2019-03-24T06:02:59.869Z,99.99
2019-03-24T06:03:59.769Z,99.99
2019-03-24T06:04:59.802Z,99.99
2019-03-24T06:05:59.709Z,99.99
2019-03-24T06:06:59.668Z,99.99
2019-03-24T06:07:59.626Z,99.99
2019-03-24T06:08:59.599Z,99.99
2019-03-24T06:09:59.518Z,99.99
2019-03-24T06:10:59.493Z,99.99
2019-03-24T06:11:59.454Z,99.99
2019-03-24T06:12:59.429Z,99.99
2019-03-24T06:13:59.428Z,99.99
2019-03-24T06:14:59.348Z,99.99
2019-03-24T06:15:59.330Z,99.99
2019-03-24T06:16:59.269Z,99.99
2019-03-24T06:17:59.258Z,99.99
2019-03-24T06:18:59.286Z,99.99
2019-03-24T06:19:59.175Z,99.99
2019-03-24T06:20:59.115Z,99.99
2019-03-24T06:21:59.082Z,99.99
2019-03-24T06:22:59.049Z,99.99
2019-03-24T06:23:59.015Z,99.99
2019-03-24T06:24:58.994Z,99.99
2019-03-24T06:25:58.949Z,99.99
2019-03-24T06:26:58.900Z,99.99
2019-03-24T06:27:58.866Z,99.99
2019-03-24T06:28:58.832Z,99.99
2019-03-24T06:29:58.788Z,99.99
2019-03-24T06:30:58.807Z,99.99
2019-03-24T06:31:58.749Z,99.99
2019-03-24T06:32:58.671Z,99.99
2019-03-24T06:33:58.654Z,99.99
2019-03-24T06:34:58.619Z,99.99
2019-03-24T06:35:58.572Z,99.99
2019-03-24T06:36:58.576Z,99.99
2019-03-24T06:37:58.504Z,99.99
2019-03-24T06:38:58.464Z,99.99
2019-03-24T06:39:58.414Z,99.99
2019-03-24T06:40:58.393Z,99.99
2019-03-24T06:41:58.362Z,99.99
2019-03-24T06:42:58.354Z,99.99
2019-03-24T06:43:58.283Z,99.99
2019-03-24T06:44:58.250Z,99.99
2019-03-24T06:45:58.197Z,99.99
2019-03-24T06:46:58.193Z,99.99
2019-03-24T06:47:58.447Z,99.99
2019-03-24T06:48:58.099Z,99.99
2019-03-24T06:49:58.072Z,99.99
2019-03-24T06:50:58.030Z,99.99
2019-03-24T06:51:58.026Z,99.99
2019-03-24T06:52:57.952Z,99.99
2019-03-24T06:53:57.900Z,99.99
2019-03-24T06:54:57.857Z,99.99
2019-03-24T06:55:57.850Z,99.99
2019-03-24T06:56:57.826Z,99.99
2019-03-24T06:57:57.868Z,99.99
2019-03-24T06:58:57.713Z,99.99
2019-03-24T06:59:57.663Z,99.99
2019-03-24T07:00:57.640Z,99.99
2019-03-24T07:01:57.598Z,99.99
2019-03-24T07:02:57.569Z,99.99
2019-03-24T07:03:57.583Z,99.99
2019-03-24T07:04:57.491Z,99.99
2019-03-24T07:05:57.461Z,99.99
2019-03-24T07:06:57.413Z,99.99
2019-03-24T07:07:57.383Z,99.99
2019-03-24T07:08:57.352Z,99.99
2019-03-24T07:09:57.329Z,99.99
2019-03-24T07:10:57.274Z,99.99
2019-03-24T07:11:57.235Z,99.99
2019-03-24T07:12:57.179Z,99.99
2019-03-24T07:13:57.184Z,99.99
2019-03-24T07:14:57.109Z,99.99
2019-03-24T07:15:57.098Z,99.99
2019-03-24T07:16:57.046Z,99.99
2019-03-24T07:17:57.005Z,99.99
2019-03-24T07:18:56.967Z,99.99
2019-03-24T07:19:56.939Z,99.99
2019-03-24T07:20:56.908Z,99.99
2019-03-24T07:21:56.882Z,99.99
2019-03-24T07:22:56.829Z,99.99
2019-03-24T07:23:56.786Z,99.99
2019-03-24T07:24:56.776Z,99.99
2019-03-24T07:25:56.731Z,99.99
2019-03-24T07:26:56.699Z,99.99
2019-03-24T07:27:56.663Z,99.99
2019-03-24T07:28:56.600Z,99.99
2019-03-24T07:29:56.564Z,99.99
2019-03-24T07:30:56.534Z,99.99
2019-03-24T07:31:56.490Z,99.99
2019-03-24T07:32:56.450Z,99.99
2019-03-24T07:33:56.466Z,99.99
2019-03-24T07:34:56.396Z,99.99
2019-03-24T07:35:56.348Z,99.99
2019-03-24T07:36:56.315Z,99.99
2019-03-24T07:37:56.285Z,99.99
2019-03-24T07:38:56.229Z,99.99
2019-03-24T07:39:56.198Z,99.99
2019-03-24T07:40:56.153Z,99.99
2019-03-24T07:41:56.167Z,99.99
2019-03-24T07:42:56.095Z,99.99
2019-03-24T07:43:56.049Z,99.99
2019-03-24T07:44:56.029Z,99.99
2019-03-24T07:45:55.975Z,99.99
2019-03-24T07:46:55.941Z,99.99
2019-03-24T07:47:55.901Z,99.99
2019-03-24T07:48:55.866Z,99.99
2019-03-24T07:49:55.820Z,99.99
2019-03-24T07:50:55.783Z,99.99
2019-03-24T07:51:55.765Z,99.99
2019-03-24T07:52:55.724Z,99.99
2019-03-24T07:53:55.680Z,99.99
2019-03-24T07:54:55.649Z,99.99
2019-03-24T07:55:55.618Z,99.99
2019-03-24T07:56:55.563Z,99.99
2019-03-24T07:57:55.554Z,99.99
2019-03-24T07:58:55.482Z,99.99
2019-03-24T07:59:55.448Z,99.99
2019-03-24T08:00:55.424Z,99.99
2019-03-24T08:01:55.430Z,99.99
2019-03-24T08:02:55.730Z,99.99
2019-03-24T08:03:55.297Z,99.99
2019-03-24T08:04:55.334Z,99.99
2019-03-24T08:05:55.264Z,99.99
2019-03-24T08:06:55.200Z,99.99
2019-03-24T08:07:55.170Z,99.99
2019-03-24T08:08:55.122Z,99.99
2019-03-24T08:09:55.086Z,99.99
2019-03-24T08:10:55.046Z,99.99
2019-03-24T08:11:55.012Z,99.99
2019-03-24T08:12:55.088Z,99.99
2019-03-24T08:13:54.945Z,99.99
2019-03-24T08:14:54.900Z,99.99
2019-03-24T08:15:54.868Z,99.99
2019-03-24T08:16:54.839Z,99.99
2019-03-24T08:17:54.806Z,99.99
2019-03-24T08:18:54.838Z,99.99
2019-03-24T08:19:54.714Z,99.99
2019-03-24T08:20:54.688Z,99.99
2019-03-24T08:21:54.639Z,99.99
2019-03-24T08:22:54.618Z,99.99
2019-03-24T08:23:54.570Z,99.99
2019-03-24T08:24:54.540Z,99.99
2019-03-24T08:25:54.489Z,99.99
2019-03-24T08:26:54.462Z,99.99
2019-03-24T08:27:54.475Z,99.99
2019-03-24T08:28:54.414Z,99.99
2019-03-24T08:29:54.348Z,99.99
2019-03-24T08:30:54.315Z,99.99
2019-03-24T08:31:54.278Z,99.99
2019-03-24T08:32:54.268Z,99.99
2019-03-24T08:33:54.206Z,99.99
2019-03-24T08:34:54.185Z,99.99
2019-03-24T08:35:54.146Z,99.99
2019-03-24T08:36:54.088Z,99.99
2019-03-24T08:37:54.059Z,99.99
2019-03-24T08:38:54.021Z,99.99
2019-03-24T08:39:54.026Z,99.99
2019-03-24T08:40:53.942Z,99.99
2019-03-24T08:41:53.954Z,99.99
2019-03-24T08:42:53.916Z,99.99
2019-03-24T08:43:53.825Z,99.99
2019-03-24T08:44:53.820Z,99.99
2019-03-24T08:45:53.778Z,99.99
2019-03-24T08:46:53.742Z,99.99
2019-03-24T08:47:53.690Z,99.99
2019-03-24T08:48:53.672Z,99.99
2019-03-24T08:49:53.631Z,99.99
2019-03-24T08:50:53.590Z,99.99
2019-03-24T08:51:53.587Z,99.99
2019-03-24T08:52:53.505Z,99.99
2019-03-24T08:53:53.461Z,99.99
2019-03-24T08:54:53.448Z,99.99
2019-03-24T08:55:53.423Z,99.99
2019-03-24T08:56:54.253Z,99.99
2019-03-24T08:57:53.363Z,99.99
2019-03-24T08:58:53.295Z,99.99
2019-03-24T08:59:53.248Z,99.99
2019-03-24T09:00:53.309Z,99.99
2019-03-24T09:01:53.208Z,99.99
2019-03-24T09:02:53.141Z,99.99
2019-03-24T09:03:53.111Z,99.99
2019-03-24T09:04:53.073Z,99.99
2019-03-24T09:05:53.066Z,99.99
2019-03-24T09:06:52.989Z,99.99
2019-03-24T09:07:52.971Z,99.99
2019-03-24T09:08:52.915Z,99.99
2019-03-24T09:09:52.886Z,99.99
2019-03-24T09:10:52.860Z,99.99
2019-03-24T09:11:52.817Z,99.99
2019-03-24T09:12:52.884Z,99.99
2019-03-24T09:13:52.772Z,99.99
2019-03-24T09:14:52.712Z,99.99
2019-03-24T09:15:52.679Z,99.99
2019-03-24T09:16:52.646Z,99.99
2019-03-24T09:17:52.592Z,99.99
2019-03-24T09:18:53.178Z,99.99
2019-03-24T09:19:52.509Z,99.99
2019-03-24T09:20:52.479Z,99.99
2019-03-24T09:21:52.451Z,99.99
2019-03-24T09:22:52.462Z,99.99
2019-03-24T09:23:52.416Z,99.99
2019-03-24T09:24:52.377Z,99.99
2019-03-24T09:25:52.343Z,99.99
2019-03-24T09:26:52.287Z,99.99
2019-03-24T09:27:52.227Z,99.99
2019-03-24T09:28:52.227Z,99.99
2019-03-24T09:29:52.195Z,99.99
2019-03-24T09:30:52.163Z,99.99
2019-03-24T09:31:52.130Z,99.99
2019-03-24T09:32:52.074Z,99.99
2019-03-24T09:33:52.030Z,99.99
2019-03-24T09:34:52.035Z,99.99
2019-03-24T09:35:51.965Z,99.99
2019-03-24T09:36:51.945Z,99.99
2019-03-24T09:37:51.911Z,99.99
2019-03-24T09:38:51.876Z,99.99
2019-03-24T09:39:51.811Z,99.99
2019-03-24T09:40:51.832Z,99.99
2019-03-24T09:41:51.750Z,99.99
2019-03-24T09:42:51.735Z,99.99
2019-03-24T09:43:51.706Z,99.99
2019-03-24T09:44:51.620Z,99.99
2019-03-24T09:45:51.596Z,99.99
2019-03-24T09:46:51.560Z,99.99
2019-03-24T09:47:51.530Z,99.99
2019-03-24T09:48:51.492Z,99.99
2019-03-24T09:49:51.498Z,99.99
2019-03-24T09:50:51.433Z,99.99
2019-03-24T09:51:51.386Z,99.99
2019-03-24T09:52:51.349Z,99.99
2019-03-24T09:53:51.311Z,99.99
2019-03-24T09:54:51.256Z,99.99
2019-03-24T09:55:51.216Z,99.99
2019-03-24T09:56:51.183Z,99.99
2019-03-24T09:57:51.170Z,99.99
2019-03-24T09:58:51.097Z,99.99
2019-03-24T09:59:51.076Z,99.99
2019-03-24T10:00:51.050Z,99.99
2019-03-24T10:01:51.002Z,99.99
2019-03-24T10:02:50.965Z,99.99
2019-03-24T10:03:50.929Z,99.99
2019-03-24T10:04:50.901Z,99.99
2019-03-24T10:05:50.872Z,99.99
2019-03-24T10:06:50.848Z,99.99
2019-03-24T10:07:50.773Z,99.99
2019-03-24T10:08:50.746Z,99.99
2019-03-24T10:09:50.702Z,99.99
2019-03-24T10:10:50.661Z,99.99
2019-03-24T10:11:50.639Z,99.99
2019-03-24T10:12:50.595Z,99.99
2019-03-24T10:13:50.556Z,99.99
2019-03-24T10:14:50.534Z,99.99
2019-03-24T10:15:50.466Z,99.99
2019-03-24T10:16:50.441Z,99.99
2019-03-24T10:17:50.398Z,99.99
2019-03-24T10:18:50.428Z,99.99
2019-03-24T10:19:50.341Z,99.99
2019-03-24T10:20:50.299Z,99.99
2019-03-24T10:21:50.254Z,99.99
2019-03-24T10:22:50.220Z,99.99
2019-03-24T10:23:50.173Z,99.99
2019-03-24T10:24:50.146Z,99.99
2019-03-24T10:25:50.124Z,99.99
2019-03-24T10:26:50.079Z,99.99
2019-03-24T10:27:50.055Z,99.99
2019-03-24T10:28:50.031Z,99.99
2019-03-24T10:29:49.977Z,99.99
2019-03-24T10:30:49.980Z,99.99
2019-03-24T10:31:49.914Z,99.99
2019-03-24T10:32:49.937Z,99.99
2019-03-24T10:33:49.850Z,99.99
2019-03-24T10:34:49.799Z,99.99
2019-03-24T10:35:49.751Z,99.99
2019-03-24T10:36:49.721Z,99.99
2019-03-24T10:37:49.687Z,99.99
2019-03-24T10:38:49.648Z,99.99
2019-03-24T10:39:49.722Z,99.99
2019-03-24T10:40:49.564Z,99.99
2019-03-24T10:41:49.569Z,99.99
2019-03-24T10:42:49.491Z,99.99
2019-03-24T10:43:49.448Z,99.99
2019-03-24T10:44:49.406Z,99.99
2019-03-24T10:45:49.398Z,99.99
2019-03-24T10:46:49.375Z,99.99
2019-03-24T10:47:49.304Z,99.99
2019-03-24T10:48:49.288Z,99.99
2019-03-24T10:49:49.242Z,99.99
2019-03-24T10:50:49.211Z,99.99
2019-03-24T10:51:49.170Z,99.99
2019-03-24T10:52:49.135Z,99.99
2019-03-24T10:53:49.089Z,99.99
2019-03-24T10:54:49.054Z,99.99
2019-03-24T10:55:49.024Z,99.99
2019-03-24T10:56:49.000Z,99.99
2019-03-24T10:57:48.960Z,99.99
2019-03-24T10:58:48.902Z,99.99
2019-03-24T10:59:48.882Z,99.99
2019-03-24T11:00:48.858Z,99.99
2019-03-24T11:01:48.794Z,99.99
2019-03-24T11:02:48.781Z,99.99
2019-03-24T11:03:48.721Z,99.99
2019-03-24T11:04:48.704Z,99.99
2019-03-24T11:05:48.678Z,99.99
2019-03-24T11:06:48.620Z,99.99
2019-03-24T11:07:48.613Z,99.99
2019-03-24T11:08:48.548Z,99.99
2019-03-24T11:09:48.530Z,99.99
2019-03-24T11:10:48.481Z,99.99
2019-03-24T11:11:48.442Z,99.99
2019-03-24T11:12:48.441Z,99.99
2019-03-24T11:13:48.382Z,99.99
2019-03-24T11:14:48.338Z,99.99
2019-03-24T11:15:48.295Z,99.99
2019-03-24T11:16:48.286Z,99.99
2019-03-24T11:17:48.226Z,99.99
2019-03-24T11:18:48.218Z,99.99
2019-03-24T11:19:48.186Z,99.99
2019-03-24T11:20:48.176Z,99.99
2019-03-24T11:21:48.096Z,99.99
2019-03-24T11:22:48.048Z,99.99
2019-03-24T11:23:48.011Z,99.99
2019-03-24T11:24:47.975Z,99.99
2019-03-24T11:25:47.948Z,99.99
2019-03-24T11:26:47.936Z,99.99
2019-03-24T11:27:47.884Z,99.99
2019-03-24T11:28:47.852Z,99.99
2019-03-24T11:29:47.789Z,99.99
2019-03-24T11:30:47.771Z,99.99
2019-03-24T11:31:47.739Z,99.99
2019-03-24T11:32:47.731Z,99.99
2019-03-24T11:33:47.658Z,99.99
2019-03-24T11:34:47.646Z,99.99
2019-03-24T11:35:47.581Z,99.99
2019-03-24T11:36:47.553Z,99.99
2019-03-24T11:37:47.529Z,99.99
2019-03-24T11:38:47.494Z,99.99
2019-03-24T11:39:47.453Z,99.99
2019-03-24T11:40:47.417Z,99.99
2019-03-24T11:41:47.416Z,99.99
2019-03-24T11:42:47.326Z,99.99
2019-03-24T11:43:47.309Z,99.99
2019-03-24T11:44:47.259Z,99.99
2019-03-24T11:45:47.224Z,99.99
2019-03-24T11:46:47.181Z,99.99
2019-03-24T11:47:47.152Z,99.99
2019-03-24T11:48:47.116Z,99.99
2019-03-24T11:49:49.092Z,99.99
2019-03-24T11:50:47.082Z,99.99
2019-03-24T11:51:47.010Z,99.99
2019-03-24T11:52:46.977Z,99.99
2019-03-24T11:53:46.948Z,99.99
2019-03-24T11:54:46.922Z,99.99
2019-03-24T11:55:46.929Z,99.99
2019-03-24T11:56:46.828Z,99.99
2019-03-24T11:57:48.414Z,99.99
2019-03-24T11:58:46.829Z,99.99
2019-03-24T11:59:46.722Z,99.99
2019-03-24T12:00:46.713Z,99.99
2019-03-24T12:01:46.667Z,99.99
2019-03-24T12:02:46.649Z,99.99
2019-03-24T12:03:46.580Z,99.99
2019-03-24T12:04:46.549Z,99.99
2019-03-24T12:05:46.548Z,99.99
2019-03-24T12:06:46.472Z,99.99
2019-03-24T12:07:46.560Z,99.99
2019-03-24T12:08:46.405Z,99.99
2019-03-24T12:09:46.374Z,99.99
2019-03-24T12:10:46.332Z,99.99
2019-03-24T12:11:46.305Z,99.99
2019-03-24T12:12:46.255Z,99.99
2019-03-24T12:13:46.222Z,99.99
2019-03-24T12:14:46.196Z,99.99
2019-03-24T12:15:46.187Z,99.99
2019-03-24T12:16:46.167Z,99.99
2019-03-24T12:17:46.191Z,99.99
2019-03-24T12:18:46.045Z,99.99
2019-03-24T12:19:56.268Z,99.99
2019-03-24T12:20:45.974Z,99.99
2019-03-24T12:21:45.954Z,99.99
2019-03-24T12:22:45.907Z,99.99
2019-03-24T12:23:47.442Z,99.99
2019-03-24T12:24:45.848Z,99.99
2019-03-24T12:25:45.798Z,99.99
2019-03-24T12:26:45.774Z,99.99
2019-03-24T12:27:45.729Z,99.99
2019-03-24T12:28:45.698Z,99.99
2019-03-24T12:29:45.656Z,99.99
2019-03-24T12:30:45.615Z,99.99
2019-03-24T12:31:45.609Z,99.99
2019-03-24T12:32:45.588Z,99.99
2019-03-24T12:33:45.530Z,99.99
2019-03-24T12:34:45.499Z,99.99
2019-03-24T12:35:45.472Z,99.99
2019-03-24T12:36:45.483Z,99.99
2019-03-24T12:37:45.451Z,99.99
2019-03-24T12:38:45.341Z,99.99
2019-03-24T12:39:45.299Z,99.99
2019-03-24T12:40:45.263Z,99.99
2019-03-24T12:41:45.209Z,99.99
2019-03-24T12:42:45.203Z,99.99
2019-03-24T12:43:45.201Z,99.99
2019-03-24T12:44:45.122Z,99.99
2019-03-24T12:45:45.076Z,99.99
2019-03-24T12:46:45.047Z,99.99
2019-03-24T12:47:45.009Z,99.99
2019-03-24T12:48:44.974Z,99.99
2019-03-24T12:49:44.977Z,99.99
2019-03-24T12:50:44.897Z,99.99
2019-03-24T12:51:44.877Z,99.99